Time;durP1;ratioP1;P1;durP2;ratioP2;P2;SDS_P1;SDS_P2;PMS_P1;PMS_P2;Temp;Humidity;BMP_temperature;BMP_pressure;BME280_temperature;BME280_humidity;BME280_pressure;Samples;Min_cycle;Max_cycle;Signal;HPM_P1;HPM_P2
2021/01/28 05:00:21;;;;;;;14.55;8.90;;;3.60;99.90;;;;;;5910155;23;21871;-68
2021/01/28 05:02:54;;;;;;;15.15;8.05;;;3.60;99.90;;;;;;4935543;29;20236;-69
2021/01/28 05:05:20;;;;;;;19.45;8.80;;;3.50;99.90;;;;;;4940115;29;20213;-69
2021/01/28 05:07:46;;;;;;;20.33;8.95;;;3.50;99.90;;;;;;4939699;28;20238;-68
2021/01/28 05:10:34;;;;;;;16.95;8.93;;;3.50;99.90;;;;;;4937650;29;20626;-70
2021/01/28 05:13:01;;;;;;;18.88;8.98;;;3.40;99.90;;;;;;4916525;29;20209;-71
2021/01/28 05:15:33;;;;;;;14.82;8.55;;;3.40;99.90;;;;;;4926170;29;20206;-71
2021/01/28 05:18:02;;;;;;;20.27;9.65;;;3.40;99.90;;;;;;4927786;29;20206;-71
2021/01/28 05:20:29;;;;;;;21.30;9.65;;;3.30;99.90;;;;;;4928022;29;20532;-71
2021/01/28 05:22:59;;;;;;;19.67;9.02;;;3.30;99.90;;;;;;4921989;29;20214;-71
2021/01/28 05:25:38;;;;;;;19.17;9.63;;;3.30;99.90;;;;;;4929724;29;20221;-68
2021/01/28 05:28:17;;;;;;;16.42;9.57;;;3.30;99.90;;;;;;4903480;29;20219;-72
2021/01/28 05:30:46;;;;;;;18.02;9.68;;;3.30;99.90;;;;;;4925693;29;20293;-71
2021/01/28 05:33:31;;;;;;;20.13;10.30;;;3.30;99.90;;;;;;4920530;29;20239;-72
2021/01/28 05:36:14;;;;;;;16.50;9.40;;;3.30;99.90;;;;;;4929075;29;20202;-70
2021/01/28 05:38:42;;;;;;;18.17;9.65;;;3.30;99.90;;;;;;4922231;29;20675;-71
2021/01/28 05:41:12;;;;;;;19.30;10.20;;;3.30;99.90;;;;;;4929400;29;20228;-71
2021/01/28 05:43:40;;;;;;;15.20;10.35;;;3.30;99.90;;;;;;4930767;29;20207;-71
2021/01/28 05:46:18;;;;;;;13.35;9.15;;;3.20;99.90;;;;;;4922689;29;20198;-71
2021/01/28 05:48:45;;;;;;;19.73;9.90;;;3.20;99.90;;;;;;4933874;28;20280;-71
2021/01/28 05:51:16;;;;;;;19.10;10.07;;;3.20;99.90;;;;;;4931529;29;20253;-72
2021/01/28 05:53:58;;;;;;;17.10;8.82;;;3.20;99.90;;;;;;4925010;29;20704;-71
2021/01/28 05:56:26;;;;;;;17.15;9.70;;;3.10;99.90;;;;;;4923145;29;20265;-71
2021/01/28 05:58:59;;;;;;;16.30;7.80;;;3.10;99.90;;;;;;4925968;29;20210;-71
2021/01/28 06:01:41;;;;;;;17.33;8.75;;;3.10;99.90;;;;;;4936069;29;20244;-72
2021/01/28 06:04:21;;;;;;;14.05;8.88;;;3.10;99.90;;;;;;4930128;29;20198;-70
2021/01/28 06:07:17;;;;;;;13.98;7.43;;;3.10;99.90;;;;;;4937063;29;20213;-69
2021/01/28 06:10:11;;;;;;;10.23;6.63;;;3.00;99.90;;;;;;4924333;29;20242;-71
2021/01/28 06:13:01;;;;;;;15.80;8.15;;;3.00;99.90;;;;;;4926475;29;20213;-70
2021/01/28 06:15:41;;;;;;;12.23;6.95;;;3.00;99.90;;;;;;4905926;29;20264;-70
2021/01/28 06:18:30;;;;;;;16.13;8.02;;;2.90;99.90;;;;;;4912295;29;20203;-67
2021/01/28 06:21:44;;;;;;;13.77;7.55;;;2.90;99.90;;;;;;4930493;29;20230;-67
2021/01/28 06:24:36;;;;;;;14.45;6.50;;;2.90;99.90;;;;;;4912349;29;20698;-67
2021/01/28 06:27:14;;;;;;;16.83;6.97;;;2.90;99.90;;;;;;4919149;29;20667;-67
2021/01/28 06:29:54;;;;;;;12.75;7.03;;;2.80;99.90;;;;;;4935027;29;20209;-70
2021/01/28 06:32:55;;;;;;;17.00;8.38;;;2.80;99.90;;;;;;4941311;29;20240;-70
2021/01/28 06:35:47;;;;;;;10.95;6.95;;;2.80;99.90;;;;;;4893714;29;20226;-68
2021/01/28 06:38:44;;;;;;;11.55;7.72;;;2.70;99.90;;;;;;4922928;29;20206;-70
2021/01/28 06:41:13;;;;;;;11.32;7.20;;;2.70;99.90;;;;;;4921039;29;20222;-71
2021/01/28 06:43:49;;;;;;;12.50;7.68;;;2.70;99.90;;;;;;4932728;29;20250;-70
2021/01/28 06:46:28;;;;;;;14.50;7.18;;;2.60;99.90;;;;;;4931316;29;20206;-71
2021/01/28 06:49:05;;;;;;;11.30;7.13;;;2.60;99.90;;;;;;4925211;29;20210;-71
2021/01/28 06:51:51;;;;;;;12.38;6.97;;;2.60;99.90;;;;;;4926170;29;20666;-68
2021/01/28 06:54:26;;;;;;;15.32;8.20;;;2.60;99.90;;;;;;4909705;29;20750;-70
2021/01/28 06:56:57;;;;;;;11.00;7.68;;;2.50;99.90;;;;;;4928779;29;20206;-70
2021/01/28 06:59:31;;;;;;;10.98;6.38;;;2.50;99.90;;;;;;4923895;29;20630;-69
2021/01/28 07:02:02;;;;;;;11.15;6.47;;;2.50;99.90;;;;;;4925955;29;20241;-69
2021/01/28 07:04:35;;;;;;;12.98;6.38;;;2.50;99.90;;;;;;4918995;29;20187;-68
2021/01/28 07:07:10;;;;;;;12.15;8.07;;;2.50;99.90;;;;;;4918857;29;20617;-68
2021/01/28 07:09:41;;;;;;;9.60;6.25;;;2.40;99.90;;;;;;4918614;29;20202;-68
2021/01/28 07:12:09;;;;;;;11.23;7.03;;;2.40;99.90;;;;;;4926069;29;20222;-67
2021/01/28 07:14:36;;;;;;;12.23;6.63;;;2.40;99.90;;;;;;4918457;29;20302;-67
2021/01/28 07:17:08;;;;;;;10.75;7.25;;;2.40;99.90;;;;;;4920058;29;20211;-69
2021/01/28 07:19:39;;;;;;;10.85;6.50;;;2.40;99.90;;;;;;4918061;29;20258;-69
2021/01/28 07:22:25;;;;;;;10.80;7.00;;;2.40;99.90;;;;;;4917568;29;20717;-68
2021/01/28 07:24:51;;;;;;;12.80;8.23;;;2.40;99.90;;;;;;4918914;29;20651;-68
2021/01/28 07:27:20;;;;;;;14.00;7.57;;;2.40;99.90;;;;;;4917899;29;20290;-68
2021/01/28 07:29:55;;;;;;;13.38;7.88;;;2.40;99.90;;;;;;4918130;29;20652;-68
2021/01/28 07:32:51;;;;;;;12.23;6.95;;;2.40;99.90;;;;;;4917533;29;20241;-68
2021/01/28 07:35:43;;;;;;;15.15;8.10;;;2.50;99.90;;;;;;4918232;29;20226;-68
2021/01/28 07:38:46;;;;;;;11.40;7.15;;;2.50;99.90;;;;;;4923697;28;20214;-68
2021/01/28 07:41:25;;;;;;;9.93;6.03;;;2.40;99.90;;;;;;4917838;29;20312;-67
2021/01/28 07:43:53;;;;;;;12.85;7.10;;;2.50;99.90;;;;;;4918700;29;20206;-67
2021/01/28 07:46:36;;;;;;;13.05;7.03;;;2.50;99.90;;;;;;4924990;29;20214;-66
2021/01/28 07:49:13;;;;;;;14.05;6.72;;;2.50;99.90;;;;;;4923440;29;20210;-67
2021/01/28 07:51:41;;;;;;;11.00;6.97;;;2.40;99.90;;;;;;4906204;29;20258;-68
2021/01/28 07:54:36;;;;;;;11.55;7.45;;;2.40;99.90;;;;;;4916682;29;20234;-68
2021/01/28 07:57:05;;;;;;;13.63;6.10;;;2.50;99.90;;;;;;4914826;29;20201;-67
2021/01/28 07:59:48;;;;;;;11.50;6.57;;;2.50;99.90;;;;;;4917387;29;20218;-67
2021/01/28 08:02:22;;;;;;;14.77;7.95;;;2.50;99.90;;;;;;4922138;29;20324;-68
2021/01/28 08:04:53;;;;;;;11.75;7.78;;;2.50;99.90;;;;;;4922987;29;20260;-67
2021/01/28 08:07:24;;;;;;;11.07;8.10;;;2.50;99.90;;;;;;4924419;29;20222;-68
2021/01/28 08:09:53;;;;;;;16.23;8.38;;;2.50;99.90;;;;;;4916814;29;20211;-68
2021/01/28 08:12:29;;;;;;;15.50;8.88;;;2.60;99.90;;;;;;4915975;29;20302;-68
2021/01/28 08:14:56;;;;;;;16.70;9.38;;;2.60;99.90;;;;;;4923693;29;20226;-69
2021/01/28 08:17:27;;;;;;;18.08;9.73;;;2.60;99.90;;;;;;4917922;29;20214;-68
2021/01/28 08:20:18;;;;;;;12.00;7.45;;;2.60;99.90;;;;;;4922012;29;20206;-68
2021/01/28 08:22:55;;;;;;;11.30;7.28;;;2.70;99.90;;;;;;4919877;29;20209;-69
2021/01/28 08:25:23;;;;;;;10.95;6.45;;;2.70;99.90;;;;;;4935107;28;20202;-68
2021/01/28 08:27:50;;;;;;;11.15;7.55;;;2.70;99.90;;;;;;4928202;29;20203;-67
2021/01/28 08:30:23;;;;;;;11.80;8.38;;;2.70;99.90;;;;;;4931051;29;20646;-67
2021/01/28 08:32:55;;;;;;;11.38;8.13;;;2.80;99.90;;;;;;4924697;29;20207;-67
2021/01/28 08:35:25;;;;;;;14.10;7.82;;;2.80;99.90;;;;;;4917218;29;20609;-67
2021/01/28 08:38:02;;;;;;;14.93;9.50;;;2.90;99.90;;;;;;4926662;29;20202;-68
2021/01/28 08:40:28;;;;;;;9.68;6.68;;;2.90;99.90;;;;;;4933330;28;20256;-68
2021/01/28 08:43:06;;;;;;;10.77;7.28;;;2.90;99.90;;;;;;4934006;29;20217;-67
2021/01/28 08:45:33;;;;;;;11.60;6.80;;;2.80;99.90;;;;;;4939614;29;20241;-66
2021/01/28 08:48:01;;;;;;;12.38;8.57;;;2.90;99.90;;;;;;4931884;29;20235;-68
2021/01/28 08:50:28;;;;;;;10.65;7.25;;;2.90;99.90;;;;;;4935221;29;20285;-68
2021/01/28 08:53:00;;;;;;;10.98;7.38;;;2.90;99.90;;;;;;4923265;29;20206;-68
2021/01/28 08:55:31;;;;;;;18.95;10.10;;;2.90;99.90;;;;;;4921322;29;20235;-68
2021/01/28 08:58:05;;;;;;;9.70;7.68;;;3.00;99.90;;;;;;4923869;29;20207;-68
2021/01/28 09:00:32;;;;;;;17.27;9.55;;;3.00;99.90;;;;;;4914321;29;20253;-67
2021/01/28 09:03:02;;;;;;;56.95;16.70;;;2.90;99.90;;;;;;4914775;29;20218;-68
2021/01/28 09:05:32;;;;;;;39.58;20.67;;;2.90;99.90;;;;;;4920493;29;20206;-67
2021/01/28 09:08:00;;;;;;;19.80;12.13;;;3.00;99.90;;;;;;4914276;29;20209;-67
2021/01/28 09:10:34;;;;;;;17.48;12.75;;;3.00;99.90;;;;;;4919293;29;20237;-67
2021/01/28 09:13:16;;;;;;;13.07;8.30;;;3.00;99.90;;;;;;4915205;29;20691;-67
2021/01/28 09:15:42;;;;;;;11.63;8.20;;;3.10;99.90;;;;;;4918427;29;20227;-68
2021/01/28 09:18:16;;;;;;;15.40;10.05;;;3.00;99.90;;;;;;4916749;29;20210;-68
2021/01/28 09:20:43;;;;;;;22.98;12.43;;;3.00;99.90;;;;;;4915578;29;20230;-68
2021/01/28 09:23:11;;;;;;;23.00;13.77;;;3.00;99.90;;;;;;4914938;29;20643;-67
2021/01/28 09:25:38;;;;;;;20.67;14.30;;;3.00;99.90;;;;;;4923826;29;20206;-68
2021/01/28 09:28:08;;;;;;;12.20;7.45;;;3.10;99.90;;;;;;4914886;29;20213;-68
2021/01/28 09:30:38;;;;;;;12.75;7.57;;;3.00;99.90;;;;;;4916613;29;20273;-68
2021/01/28 09:33:24;;;;;;;9.85;6.55;;;3.00;99.90;;;;;;4907948;29;20240;-68
2021/01/28 09:36:06;;;;;;;15.57;7.07;;;2.90;99.90;;;;;;4917785;29;20211;-68
2021/01/28 09:38:32;;;;;;;11.65;7.85;;;2.90;99.90;;;;;;4918104;29;20588;-69
2021/01/28 09:41:11;;;;;;;13.32;8.95;;;3.00;99.90;;;;;;4925941;29;20535;-67
2021/01/28 09:43:37;;;;;;;12.73;6.93;;;2.90;99.90;;;;;;4916987;29;20234;-68
2021/01/28 09:46:10;;;;;;;10.95;7.68;;;2.80;99.90;;;;;;4917462;29;20222;-68
2021/01/28 09:48:36;;;;;;;10.00;7.25;;;2.90;99.90;;;;;;4918119;29;20579;-68
2021/01/28 09:51:03;;;;;;;9.30;6.28;;;3.00;99.90;;;;;;4916792;29;20222;-68
2021/01/28 09:53:29;;;;;;;11.57;8.25;;;3.10;99.90;;;;;;4915181;29;20353;-67
2021/01/28 09:55:55;;;;;;;10.10;7.20;;;3.20;99.90;;;;;;4923737;29;20222;-68
2021/01/28 09:58:22;;;;;;;9.93;7.25;;;3.10;99.90;;;;;;4926606;29;20210;-68
2021/01/28 10:00:48;;;;;;;12.85;7.85;;;3.10;99.90;;;;;;4929946;29;20749;-68
2021/01/28 10:03:15;;;;;;;13.23;6.90;;;3.10;99.90;;;;;;4919135;29;20253;-68
2021/01/28 10:05:41;;;;;;;8.82;6.65;;;3.10;99.90;;;;;;4933093;29;20531;-68
2021/01/28 10:08:08;;;;;;;8.93;6.63;;;3.10;99.90;;;;;;4928175;29;20205;-68
2021/01/28 10:10:37;;;;;;;12.60;7.38;;;3.10;99.90;;;;;;4915960;29;20222;-66
2021/01/28 10:13:05;;;;;;;11.82;5.85;;;3.10;99.90;;;;;;4914243;29;20246;-68
2021/01/28 10:15:31;;;;;;;8.98;6.53;;;3.00;99.90;;;;;;4917741;29;20230;-68
2021/01/28 10:17:59;;;;;;;15.25;7.18;;;3.00;99.90;;;;;;4915323;29;20214;-68
2021/01/28 10:20:26;;;;;;;10.68;7.07;;;3.10;99.90;;;;;;4918364;29;20214;-68
2021/01/28 10:22:54;;;;;;;11.95;6.85;;;3.10;99.90;;;;;;4931110;29;20203;-68
2021/01/28 10:25:22;;;;;;;8.88;5.22;;;3.10;99.90;;;;;;4916072;29;20811;-68
2021/01/28 10:27:48;;;;;;;7.35;6.10;;;3.10;99.90;;;;;;4922843;29;20215;-68
2021/01/28 10:30:17;;;;;;;8.35;5.20;;;3.10;99.90;;;;;;4914753;29;20667;-68
2021/01/28 10:32:44;;;;;;;5.88;5.30;;;3.00;99.90;;;;;;4916115;29;20229;-68
2021/01/28 10:35:12;;;;;;;6.50;5.57;;;3.00;99.90;;;;;;4895846;29;20294;-68
2021/01/28 10:37:39;;;;;;;8.55;5.57;;;3.00;99.90;;;;;;4909959;29;20209;-68
2021/01/28 10:40:06;;;;;;;5.85;4.30;;;3.00;99.90;;;;;;4924743;29;20221;-68
2021/01/28 10:42:38;;;;;;;8.80;5.97;;;2.90;99.90;;;;;;4916709;29;20293;-68
2021/01/28 10:45:06;;;;;;;6.75;5.07;;;2.90;99.90;;;;;;4915225;29;20210;-68
2021/01/28 10:47:32;;;;;;;7.10;5.85;;;3.00;99.90;;;;;;4922784;29;20260;-68
2021/01/28 10:49:58;;;;;;;6.03;5.13;;;3.00;99.90;;;;;;4926019;28;20211;-68
2021/01/28 10:52:24;;;;;;;6.25;5.65;;;3.10;99.90;;;;;;4915374;29;20588;-68
2021/01/28 10:54:51;;;;;;;6.03;5.05;;;3.20;99.90;;;;;;4914865;29;20262;-69
2021/01/28 10:57:17;;;;;;;5.85;5.25;;;3.20;99.90;;;;;;4919154;29;20213;-68
2021/01/28 10:59:43;;;;;;;7.35;5.65;;;3.20;99.90;;;;;;4920239;29;20199;-68
2021/01/28 11:02:09;;;;;;;5.40;4.90;;;3.20;99.90;;;;;;4916539;29;20237;-68
2021/01/28 11:04:36;;;;;;;5.07;4.43;;;3.20;99.90;;;;;;4931737;28;20607;-68
2021/01/28 11:07:02;;;;;;;5.85;5.25;;;3.20;99.90;;;;;;4932528;29;20217;-69
2021/01/28 11:09:28;;;;;;;5.78;5.20;;;3.20;99.90;;;;;;4914801;29;20206;-69
2021/01/28 11:11:56;;;;;;;5.45;4.95;;;3.20;99.90;;;;;;4915393;29;20235;-68
2021/01/28 11:14:22;;;;;;;5.60;5.15;;;3.20;99.90;;;;;;4917333;29;20420;-68
2021/01/28 11:16:48;;;;;;;4.47;4.25;;;3.10;99.90;;;;;;4918641;29;20211;-68
2021/01/28 11:19:14;;;;;;;6.28;4.50;;;3.10;99.90;;;;;;4934107;29;20209;-67
2021/01/28 11:21:40;;;;;;;4.70;4.30;;;3.10;99.90;;;;;;4917362;29;20246;-67
2021/01/28 11:24:07;;;;;;;4.03;3.70;;;3.20;99.90;;;;;;4934166;29;20202;-67
2021/01/28 11:26:33;;;;;;;4.80;3.70;;;3.10;99.90;;;;;;4937158;29;20206;-67
2021/01/28 11:29:02;;;;;;;3.80;3.50;;;3.10;99.90;;;;;;4921384;29;20300;-67
2021/01/28 11:31:28;;;;;;;3.50;3.30;;;3.10;99.90;;;;;;4918108;29;20357;-68
2021/01/28 11:33:54;;;;;;;4.50;4.15;;;3.10;99.90;;;;;;4931654;29;20584;-68
2021/01/28 11:36:20;;;;;;;3.22;2.92;;;3.10;99.90;;;;;;4937670;29;20210;-68
2021/01/28 11:38:46;;;;;;;3.92;3.55;;;3.10;99.90;;;;;;4924179;29;20572;-68
2021/01/28 11:41:12;;;;;;;3.35;3.15;;;3.10;99.90;;;;;;4917618;29;20319;-68
2021/01/28 11:43:38;;;;;;;5.88;3.90;;;3.10;99.90;;;;;;4927881;28;20214;-67
2021/01/28 11:46:05;;;;;;;3.47;3.17;;;3.20;99.90;;;;;;4937156;29;20222;-68
2021/01/28 11:48:31;;;;;;;4.43;3.80;;;3.20;99.90;;;;;;4935103;29;20213;-68
2021/01/28 11:50:57;;;;;;;4.95;4.53;;;3.20;99.90;;;;;;4922015;29;20230;-68
2021/01/28 11:53:24;;;;;;;5.43;4.93;;;3.20;99.90;;;;;;4917904;29;20218;-68
2021/01/28 11:55:50;;;;;;;4.40;4.07;;;3.10;99.90;;;;;;4916764;29;20779;-69
2021/01/28 11:58:19;;;;;;;4.72;3.88;;;3.20;99.90;;;;;;4924596;29;20228;-68
2021/01/28 12:00:45;;;;;;;4.30;3.45;;;3.20;99.90;;;;;;4924011;29;20238;-69
2021/01/28 12:03:12;;;;;;;4.00;3.70;;;3.20;99.90;;;;;;4935047;29;20213;-69
2021/01/28 12:05:38;;;;;;;6.80;6.35;;;3.20;99.90;;;;;;4924206;29;20207;-69
2021/01/28 12:08:05;;;;;;;3.40;3.20;;;3.20;99.90;;;;;;4917586;29;20309;-68
2021/01/28 12:10:32;;;;;;;4.60;3.35;;;3.20;99.90;;;;;;4916896;29;20230;-68
2021/01/28 12:12:58;;;;;;;4.68;3.70;;;3.20;99.90;;;;;;4917175;29;20257;-68
2021/01/28 12:15:25;;;;;;;3.50;3.22;;;3.20;99.90;;;;;;4917076;29;20231;-68
2021/01/28 12:17:52;;;;;;;4.07;3.08;;;3.20;99.90;;;;;;4917066;29;20589;-68
2021/01/28 12:20:22;;;;;;;3.42;3.03;;;3.20;99.90;;;;;;4916633;29;20263;-68
2021/01/28 12:22:48;;;;;;;3.55;3.22;;;3.20;99.90;;;;;;4917162;29;20211;-68
2021/01/28 12:25:14;;;;;;;4.75;3.47;;;3.20;99.90;;;;;;4916460;29;20207;-68
2021/01/28 12:27:40;;;;;;;4.20;3.90;;;3.30;99.90;;;;;;4918085;29;20206;-68
2021/01/28 12:30:10;;;;;;;3.95;3.67;;;3.30;99.90;;;;;;4916497;29;20219;-67
2021/01/28 12:32:36;;;;;;;4.40;3.97;;;3.30;99.90;;;;;;4924256;28;20218;-67
2021/01/28 12:35:03;;;;;;;3.33;3.13;;;3.20;99.90;;;;;;4936209;29;20234;-68
2021/01/28 12:37:30;;;;;;;6.20;3.80;;;3.20;99.90;;;;;;4928430;29;20210;-68
2021/01/28 12:39:56;;;;;;;4.97;3.40;;;3.20;99.90;;;;;;4915956;29;20643;-68
2021/01/28 12:42:25;;;;;;;3.70;3.50;;;3.20;99.90;;;;;;4915717;29;20226;-68
2021/01/28 12:44:51;;;;;;;3.15;2.70;;;3.20;99.90;;;;;;4918048;29;20213;-68
2021/01/28 12:47:17;;;;;;;2.55;2.45;;;3.20;99.90;;;;;;4935936;29;20226;-68
2021/01/28 12:49:44;;;;;;;2.63;2.53;;;3.20;99.90;;;;;;4919626;29;20270;-68
2021/01/28 12:52:10;;;;;;;3.22;3.03;;;3.20;99.90;;;;;;4929079;29;20218;-68
2021/01/28 12:54:37;;;;;;;2.75;2.65;;;3.30;99.90;;;;;;4919994;29;20529;-68
2021/01/28 12:57:04;;;;;;;4.05;3.60;;;3.30;99.90;;;;;;4915991;29;20560;-68
2021/01/28 12:59:30;;;;;;;5.07;3.70;;;3.20;99.90;;;;;;4916310;29;20694;-68
2021/01/28 13:01:56;;;;;;;7.20;3.67;;;3.20;99.90;;;;;;4918521;29;20231;-69
2021/01/28 13:04:22;;;;;;;2.97;2.90;;;3.20;99.90;;;;;;4916177;29;20636;-69
2021/01/28 13:06:48;;;;;;;4.78;3.55;;;3.20;99.90;;;;;;4913264;29;20206;-68
2021/01/28 13:09:15;;;;;;;3.55;3.35;;;3.20;99.90;;;;;;4916376;29;20203;-68
2021/01/28 13:11:42;;;;;;;3.65;3.22;;;3.20;99.90;;;;;;4916559;29;20230;-68
2021/01/28 13:14:08;;;;;;;4.43;3.58;;;3.20;99.90;;;;;;4915009;29;20583;-68
2021/01/28 13:16:34;;;;;;;3.80;3.58;;;3.30;99.90;;;;;;4915266;29;20798;-68
2021/01/28 13:19:00;;;;;;;3.45;3.25;;;3.20;99.90;;;;;;4897398;29;20222;-68
2021/01/28 13:21:26;;;;;;;3.85;3.47;;;3.20;99.90;;;;;;4907514;29;20309;-68
2021/01/28 13:23:53;;;;;;;2.10;2.10;;;3.20;99.90;;;;;;4916129;29;20233;-68
2021/01/28 13:26:19;;;;;;;3.00;2.80;;;3.20;99.90;;;;;;4908781;29;20221;-68
2021/01/28 13:28:47;;;;;;;4.20;3.30;;;3.20;99.90;;;;;;4931920;29;20561;-67
2021/01/28 13:31:13;;;;;;;3.03;2.83;;;3.20;99.90;;;;;;4930858;29;20223;-68
2021/01/28 13:33:39;;;;;;;3.58;3.30;;;3.20;99.90;;;;;;4911184;29;20211;-68
2021/01/28 13:36:07;;;;;;;3.08;2.95;;;3.20;99.90;;;;;;4916298;29;20226;-68
2021/01/28 13:38:33;;;;;;;3.00;2.38;;;3.20;99.90;;;;;;4899152;29;20203;-68
2021/01/28 13:40:59;;;;;;;2.75;2.58;;;3.20;99.90;;;;;;4916356;29;20727;-68
2021/01/28 13:43:25;;;;;;;3.10;2.95;;;3.20;99.90;;;;;;4915998;29;20222;-68
2021/01/28 13:45:52;;;;;;;2.67;2.58;;;3.20;99.90;;;;;;4915303;29;20246;-68
2021/01/28 13:48:19;;;;;;;3.63;3.30;;;3.20;99.90;;;;;;4932664;28;20214;-67
2021/01/28 13:50:46;;;;;;;1.95;1.85;;;3.10;99.90;;;;;;4933051;29;20236;-67
2021/01/28 13:53:13;;;;;;;3.30;3.10;;;3.00;99.90;;;;;;4912427;29;20357;-68
2021/01/28 13:55:39;;;;;;;3.33;2.75;;;3.00;99.90;;;;;;4914581;29;20233;-68
2021/01/28 13:58:05;;;;;;;2.60;2.55;;;3.00;99.90;;;;;;4929375;29;20362;-67
2021/01/28 14:00:32;;;;;;;3.75;3.30;;;3.00;99.90;;;;;;4933214;29;20234;-68
2021/01/28 14:02:59;;;;;;;6.85;3.20;;;3.00;99.90;;;;;;4913810;29;20236;-68
2021/01/28 14:05:26;;;;;;;2.10;2.00;;;2.90;99.90;;;;;;4915970;29;20292;-67
2021/01/28 14:07:53;;;;;;;2.78;2.53;;;2.90;99.90;;;;;;4926211;29;20206;-68
2021/01/28 14:10:23;;;;;;;2.38;2.30;;;2.90;99.90;;;;;;4931199;29;20209;-68
2021/01/28 14:12:49;;;;;;;2.00;1.90;;;2.90;99.90;;;;;;4924073;29;20268;-68
2021/01/28 14:15:18;;;;;;;2.42;2.00;;;2.80;99.90;;;;;;4931797;29;20226;-68
2021/01/28 14:17:45;;;;;;;2.70;2.50;;;2.80;99.90;;;;;;4918659;29;20202;-69
2021/01/28 14:20:14;;;;;;;2.60;2.50;;;2.70;99.90;;;;;;4922711;29;20520;-69
2021/01/28 14:22:40;;;;;;;1.50;1.45;;;2.70;99.90;;;;;;4934175;29;20293;-68
2021/01/28 14:25:07;;;;;;;2.25;2.17;;;2.70;99.90;;;;;;4932893;29;20202;-68
2021/01/28 14:27:33;;;;;;;2.22;2.20;;;2.60;99.90;;;;;;4918752;29;20269;-68
2021/01/28 14:29:59;;;;;;;5.85;2.60;;;2.60;99.90;;;;;;4916035;29;20207;-68
2021/01/28 14:32:26;;;;;;;2.88;1.73;;;2.60;99.90;;;;;;4932835;29;20237;-68
2021/01/28 14:34:52;;;;;;;1.70;1.60;;;2.60;99.90;;;;;;4930646;29;20222;-69
2021/01/28 14:37:19;;;;;;;1.90;1.90;;;2.50;99.90;;;;;;4915343;29;20211;-68
2021/01/28 14:39:45;;;;;;;1.63;1.60;;;2.50;99.90;;;;;;4916116;29;20210;-68
2021/01/28 14:42:11;;;;;;;2.35;2.20;;;2.50;99.90;;;;;;4914297;29;20230;-68
2021/01/28 14:44:37;;;;;;;1.70;1.70;;;2.50;99.90;;;;;;4924202;29;20205;-68
2021/01/28 14:47:04;;;;;;;3.83;2.90;;;2.50;99.90;;;;;;4924646;29;20211;-69
2021/01/28 14:49:30;;;;;;;3.05;2.25;;;2.60;99.90;;;;;;4936639;29;20205;-68
2021/01/28 14:51:56;;;;;;;1.75;1.75;;;2.60;99.90;;;;;;4929766;28;20237;-68
2021/01/28 14:54:23;;;;;;;1.80;1.80;;;2.60;99.90;;;;;;4937397;29;20241;-68
2021/01/28 14:56:49;;;;;;;1.63;1.63;;;2.60;99.90;;;;;;4928705;29;20209;-68
2021/01/28 14:59:15;;;;;;;1.80;1.75;;;2.60;99.90;;;;;;4938171;29;20230;-68
2021/01/28 15:01:42;;;;;;;1.77;1.65;;;2.60;99.90;;;;;;4918411;29;20238;-69
2021/01/28 15:04:08;;;;;;;1.63;1.52;;;2.50;99.90;;;;;;4937466;29;20210;-68
2021/01/28 15:06:34;;;;;;;1.15;1.10;;;2.50;99.90;;;;;;4929933;29;20207;-68
2021/01/28 15:09:01;;;;;;;1.65;1.55;;;2.50;99.90;;;;;;4918890;29;20215;-68
2021/01/28 15:11:28;;;;;;;1.38;1.27;;;2.50;99.90;;;;;;4930599;29;20237;-69
2021/01/28 15:13:54;;;;;;;2.15;1.83;;;2.50;99.90;;;;;;4937777;29;20213;-69
2021/01/28 15:16:20;;;;;;;1.48;1.38;;;2.40;99.90;;;;;;4931271;29;20203;-69
2021/01/28 15:18:46;;;;;;;2.30;2.20;;;2.40;99.90;;;;;;4919615;29;20210;-68
2021/01/28 15:21:13;;;;;;;2.35;2.05;;;2.40;99.90;;;;;;4921405;29;20278;-69
2021/01/28 15:23:39;;;;;;;3.70;2.55;;;2.40;99.90;;;;;;4918066;29;20218;-69
2021/01/28 15:26:05;;;;;;;3.72;1.95;;;2.40;99.90;;;;;;4922133;29;20221;-69
2021/01/28 15:28:32;;;;;;;2.50;1.52;;;2.40;99.90;;;;;;4918349;29;20233;-69
2021/01/28 15:30:58;;;;;;;2.65;1.90;;;2.30;99.90;;;;;;4923610;28;20651;-68
2021/01/28 15:33:24;;;;;;;1.20;1.20;;;2.30;99.90;;;;;;4936982;29;20210;-69
2021/01/28 15:35:52;;;;;;;2.05;1.52;;;2.30;99.90;;;;;;4933791;29;20337;-69
2021/01/28 15:38:19;;;;;;;1.30;1.20;;;2.20;99.90;;;;;;4918371;29;20654;-69
2021/01/28 15:40:46;;;;;;;2.05;1.67;;;2.10;99.90;;;;;;4919698;29;20230;-68
2021/01/28 15:43:12;;;;;;;9.30;2.40;;;2.10;99.90;;;;;;4936937;29;20382;-68
2021/01/28 15:45:39;;;;;;;2.15;1.70;;;2.10;99.90;;;;;;4918750;29;20305;-68
2021/01/28 15:48:05;;;;;;;1.95;1.83;;;2.10;99.90;;;;;;4917371;29;20230;-68
2021/01/28 15:50:32;;;;;;;2.85;2.50;;;2.00;99.90;;;;;;4918202;29;20242;-69
2021/01/28 15:52:58;;;;;;;5.38;2.70;;;2.00;99.90;;;;;;4918866;29;20218;-68
2021/01/28 15:55:24;;;;;;;1.52;1.52;;;2.00;99.90;;;;;;4917245;29;20222;-68
2021/01/28 15:57:50;;;;;;;2.83;1.30;;;2.00;99.90;;;;;;4930280;29;20206;-69
2021/01/28 16:00:17;;;;;;;1.63;1.63;;;2.00;99.90;;;;;;4934794;29;20250;-69
2021/01/28 16:02:44;;;;;;;3.38;2.30;;;2.00;99.90;;;;;;4934105;29;20221;-69
2021/01/28 16:05:12;;;;;;;2.20;2.10;;;1.90;99.90;;;;;;4937249;29;20213;-69
2021/01/28 16:07:38;;;;;;;2.83;2.00;;;1.90;99.90;;;;;;4922103;29;20210;-69
2021/01/28 16:10:05;;;;;;;7.68;1.85;;;1.80;99.90;;;;;;4916285;29;20748;-69
2021/01/28 16:12:31;;;;;;;1.85;1.85;;;1.80;99.90;;;;;;4929512;29;20210;-69
2021/01/28 16:14:57;;;;;;;1.92;1.85;;;1.80;99.90;;;;;;4931703;29;20240;-69
2021/01/28 16:17:24;;;;;;;4.60;1.50;;;1.80;99.90;;;;;;4925548;29;20221;-70
2021/01/28 16:19:52;;;;;;;1.98;1.90;;;1.80;99.90;;;;;;4906251;29;20258;-69
2021/01/28 16:22:18;;;;;;;1.98;1.73;;;1.70;99.90;;;;;;4918714;29;20613;-69
2021/01/28 16:24:44;;;;;;;1.73;1.73;;;1.70;99.90;;;;;;4918993;29;20203;-70
2021/01/28 16:27:10;;;;;;;2.20;2.10;;;1.70;99.90;;;;;;4906470;29;20263;-69
2021/01/28 16:29:36;;;;;;;3.28;2.40;;;1.60;99.90;;;;;;4916200;29;20540;-69
2021/01/28 16:32:03;;;;;;;2.33;2.20;;;1.60;99.90;;;;;;4913132;29;20602;-69
2021/01/28 16:34:29;;;;;;;2.85;2.75;;;1.60;99.90;;;;;;4917124;29;20219;-70
2021/01/28 16:36:56;;;;;;;2.45;2.35;;;1.60;99.90;;;;;;4918268;29;20215;-69
2021/01/28 16:39:22;;;;;;;3.30;2.20;;;1.60;99.90;;;;;;4922218;29;20202;-70
2021/01/28 16:41:48;;;;;;;4.70;2.20;;;1.50;99.90;;;;;;4925705;29;20229;-69
2021/01/28 16:44:15;;;;;;;3.05;2.00;;;1.50;99.90;;;;;;4913361;29;20212;-69
2021/01/28 16:46:42;;;;;;;3.38;3.05;;;1.50;99.90;;;;;;4918182;29;20222;-69
2021/01/28 16:49:09;;;;;;;2.60;2.50;;;1.50;99.90;;;;;;4924717;29;20237;-69
2021/01/28 16:51:35;;;;;;;3.05;2.85;;;1.50;99.90;;;;;;4918322;29;20238;-69
2021/01/28 16:54:03;;;;;;;6.80;5.15;;;1.40;99.90;;;;;;4921435;29;20690;-70
2021/01/28 16:56:29;;;;;;;6.18;4.50;;;1.40;99.90;;;;;;4921045;29;20227;-70
2021/01/28 16:58:55;;;;;;;4.70;4.30;;;1.40;99.90;;;;;;4916991;29;20218;-70
2021/01/28 17:01:22;;;;;;;2.97;2.78;;;1.40;99.90;;;;;;4917696;29;20544;-69
2021/01/28 17:03:48;;;;;;;3.63;3.30;;;1.40;99.90;;;;;;4917087;29;20226;-69
2021/01/28 17:06:14;;;;;;;5.55;5.05;;;1.40;99.90;;;;;;4917614;29;20638;-69
2021/01/28 17:08:40;;;;;;;3.08;2.88;;;1.40;99.90;;;;;;4923198;29;20210;-69
2021/01/28 17:11:08;;;;;;;4.75;4.18;;;1.40;99.90;;;;;;4897499;29;20246;-70
2021/01/28 17:13:34;;;;;;;4.80;4.40;;;1.40;99.90;;;;;;4917442;29;20205;-70
2021/01/28 17:16:00;;;;;;;3.60;3.33;;;1.30;99.90;;;;;;4903334;29;20219;-69
2021/01/28 17:18:26;;;;;;;9.40;7.13;;;1.30;99.90;;;;;;4921696;29;20280;-69
2021/01/28 17:20:53;;;;;;;8.43;6.60;;;1.30;99.90;;;;;;4925982;29;20233;-69
2021/01/28 17:23:19;;;;;;;7.20;5.47;;;1.30;99.90;;;;;;4935362;29;20209;-70
2021/01/28 17:25:46;;;;;;;5.97;5.10;;;1.30;99.90;;;;;;4925058;29;20205;-69
2021/01/28 17:28:13;;;;;;;4.45;4.07;;;1.20;99.90;;;;;;4918857;29;20306;-69
2021/01/28 17:30:39;;;;;;;6.35;5.47;;;1.20;99.90;;;;;;4922894;29;20538;-69
2021/01/28 17:33:06;;;;;;;4.85;4.45;;;1.20;99.90;;;;;;4921124;29;20210;-69
2021/01/28 17:35:33;;;;;;;4.93;4.55;;;1.20;99.90;;;;;;4916486;29;20226;-69
2021/01/28 17:38:00;;;;;;;5.93;5.32;;;1.20;99.90;;;;;;4916396;29;20294;-69
2021/01/28 17:40:27;;;;;;;3.95;3.72;;;1.20;99.90;;;;;;4918761;29;20237;-69
2021/01/28 17:42:54;;;;;;;3.58;3.15;;;1.10;99.90;;;;;;4930492;29;20202;-69
2021/01/28 17:45:24;;;;;;;3.80;3.50;;;1.10;99.90;;;;;;4914134;29;20210;-69
2021/01/28 17:47:52;;;;;;;3.78;3.30;;;1.10;99.90;;;;;;4916300;29;20207;-69
2021/01/28 17:50:19;;;;;;;4.75;4.20;;;1.10;99.90;;;;;;4905655;29;20207;-69
2021/01/28 17:52:46;;;;;;;4.00;3.60;;;1.00;99.90;;;;;;4916047;29;20839;-69
2021/01/28 17:55:13;;;;;;;4.88;4.57;;;1.00;99.90;;;;;;4902447;29;20309;-69
2021/01/28 17:57:39;;;;;;;10.32;5.93;;;1.00;99.90;;;;;;4915550;29;20664;-68
2021/01/28 18:00:07;;;;;;;5.78;5.28;;;1.00;99.90;;;;;;4916972;29;20219;-69
2021/01/28 18:02:34;;;;;;;5.72;5.00;;;1.00;99.90;;;;;;4924782;29;20606;-69
2021/01/28 18:05:00;;;;;;;8.40;5.70;;;1.00;99.90;;;;;;4921818;29;20202;-68